sensor_id;sensor_type;location;lat;lon;timestamp;pressure;altitude;pressure_sealevel;temperature;humidity
74895;BME280;63447;49.446;8.666;2023-04-25T00:02:05;99851.03;;;9.40;84.15
74895;BME280;63447;49.446;8.666;2023-04-25T00:04:34;99851.84;;;9.41;84.39
74895;BME280;63447;49.446;8.666;2023-04-25T00:07:00;99829.81;;;9.20;84.25
74895;BME280;63447;49.446;8.666;2023-04-25T00:09:30;99848.44;;;9.23;83.63
74895;BME280;63447;49.446;8.666;2023-04-25T00:11:55;99831.63;;;9.16;84.10
74895;BME280;63447;49.446;8.666;2023-04-25T00:14:23;99839.16;;;9.28;82.71
74895;BME280;63447;49.446;8.666;2023-04-25T00:16:55;99840.66;;;9.25;82.26
74895;BME280;63447;49.446;8.666;2023-04-25T00:19:21;99825.00;;;9.17;82.16
74895;BME280;63447;49.446;8.666;2023-04-25T00:21:46;99825.28;;;9.24;82.69
74895;BME280;63447;49.446;8.666;2023-04-25T00:24:12;99852.03;;;9.36;82.72
74895;BME280;63447;49.446;8.666;2023-04-25T00:26:37;99827.00;;;9.29;83.42
74895;BME280;63447;49.446;8.666;2023-04-25T00:29:03;99837.34;;;9.32;82.40
74895;BME280;63447;49.446;8.666;2023-04-25T00:31:30;99837.50;;;9.35;82.61
74895;BME280;63447;49.446;8.666;2023-04-25T00:33:56;99837.84;;;9.34;83.36
74895;BME280;63447;49.446;8.666;2023-04-25T00:36:21;99840.69;;;9.37;82.71
74895;BME280;63447;49.446;8.666;2023-04-25T00:38:47;99825.19;;;9.33;83.16
74895;BME280;63447;49.446;8.666;2023-04-25T00:41:13;99825.75;;;9.26;82.42
74895;BME280;63447;49.446;8.666;2023-04-25T00:43:41;99826.22;;;9.28;82.26
74895;BME280;63447;49.446;8.666;2023-04-25T00:46:10;99832.75;;;9.36;82.13
74895;BME280;63447;49.446;8.666;2023-04-25T00:48:37;99825.19;;;9.33;81.43
74895;BME280;63447;49.446;8.666;2023-04-25T00:51:05;99814.06;;;9.29;81.12
74895;BME280;63447;49.446;8.666;2023-04-25T00:53:31;99816.34;;;9.27;81.50
74895;BME280;63447;49.446;8.666;2023-04-25T00:55:57;99815.06;;;9.25;81.01
74895;BME280;63447;49.446;8.666;2023-04-25T00:58:26;99800.81;;;9.23;81.39
74895;BME280;63447;49.446;8.666;2023-04-25T01:00:53;99813.72;;;9.31;81.46
74895;BME280;63447;49.446;8.666;2023-04-25T01:03:23;99790.81;;;9.18;82.33
74895;BME280;63447;49.446;8.666;2023-04-25T01:05:49;99810.97;;;9.31;81.78
74895;BME280;63447;49.446;8.666;2023-04-25T01:08:15;99789.16;;;9.26;82.09
74895;BME280;63447;49.446;8.666;2023-04-25T01:10:41;99789.28;;;9.29;82.56
74895;BME280;63447;49.446;8.666;2023-04-25T01:13:30;99793.78;;;9.34;83.29
74895;BME280;63447;49.446;8.666;2023-04-25T01:15:54;99794.81;;;9.41;83.48
74895;BME280;63447;49.446;8.666;2023-04-25T01:18:20;99803.88;;;9.42;83.13
74895;BME280;63447;49.446;8.666;2023-04-25T01:20:50;99798.16;;;9.35;84.05
74895;BME280;63447;49.446;8.666;2023-04-25T01:23:23;99792.03;;;9.29;84.05
74895;BME280;63447;49.446;8.666;2023-04-25T01:25:49;99792.91;;;9.21;83.48
74895;BME280;63447;49.446;8.666;2023-04-25T01:28:14;99784.94;;;9.07;84.62
74895;BME280;63447;49.446;8.666;2023-04-25T01:30:40;99796.53;;;9.13;84.65
74895;BME280;63447;49.446;8.666;2023-04-25T01:33:08;99794.03;;;9.20;84.08
74895;BME280;63447;49.446;8.666;2023-04-25T01:35:34;99798.38;;;9.09;82.45
74895;BME280;63447;49.446;8.666;2023-04-25T01:38:00;99796.53;;;9.13;83.55
74895;BME280;63447;49.446;8.666;2023-04-25T01:40:30;99801.97;;;9.01;83.75
74895;BME280;63447;49.446;8.666;2023-04-25T01:42:56;99804.78;;;8.92;85.41
74895;BME280;63447;49.446;8.666;2023-04-25T01:45:22;99805.25;;;8.94;86.42
74895;BME280;63447;49.446;8.666;2023-04-25T01:47:49;99803.84;;;8.88;85.52
74895;BME280;63447;49.446;8.666;2023-04-25T01:50:18;99807.53;;;8.92;85.80
74895;BME280;63447;49.446;8.666;2023-04-25T01:52:43;99806.19;;;8.98;86.80
74895;BME280;63447;49.446;8.666;2023-04-25T01:55:11;99792.97;;;8.92;85.89
74895;BME280;63447;49.446;8.666;2023-04-25T01:57:37;99793.91;;;8.75;86.78
74895;BME280;63447;49.446;8.666;2023-04-25T02:00:04;99802.69;;;8.89;86.92
74895;BME280;63447;49.446;8.666;2023-04-25T02:02:30;99797.06;;;8.85;86.89
74895;BME280;63447;49.446;8.666;2023-04-25T02:04:55;99811.63;;;8.86;86.99
74895;BME280;63447;49.446;8.666;2023-04-25T02:07:25;99802.63;;;8.77;87.50
74895;BME280;63447;49.446;8.666;2023-04-25T02:09:51;99788.41;;;8.75;87.00
74895;BME280;63447;49.446;8.666;2023-04-25T02:12:16;99808.66;;;8.70;86.22
74895;BME280;63447;49.446;8.666;2023-04-25T02:14:41;99813.16;;;8.75;87.07
74895;BME280;63447;49.446;8.666;2023-04-25T02:17:09;99808.88;;;8.86;87.48
74895;BME280;63447;49.446;8.666;2023-04-25T02:19:35;99803.84;;;8.88;87.24
74895;BME280;63447;49.446;8.666;2023-04-25T02:22:05;99807.81;;;8.99;85.97
74895;BME280;63447;49.446;8.666;2023-04-25T02:24:30;99808.91;;;9.07;85.05
74895;BME280;63447;49.446;8.666;2023-04-25T02:26:56;99811.19;;;9.05;85.27
74895;BME280;63447;49.446;8.666;2023-04-25T02:29:24;99804.06;;;9.04;85.99
74895;BME280;63447;49.446;8.666;2023-04-25T02:31:49;99810.91;;;8.98;84.96
74895;BME280;63447;49.446;8.666;2023-04-25T02:34:17;99803.84;;;8.88;86.94
74895;BME280;63447;49.446;8.666;2023-04-25T02:36:42;99814.25;;;8.82;85.68
74895;BME280;63447;49.446;8.666;2023-04-25T02:39:12;99802.03;;;8.71;86.69
74895;BME280;63447;49.446;8.666;2023-04-25T02:41:42;99785.84;;;8.40;86.21
74895;BME280;63447;49.446;8.666;2023-04-25T02:44:07;99809.72;;;8.57;87.87
74895;BME280;63447;49.446;8.666;2023-04-25T02:46:35;99787.81;;;8.40;87.06
74895;BME280;63447;49.446;8.666;2023-04-25T02:49:00;99793.81;;;8.33;87.50
74895;BME280;63447;49.446;8.666;2023-04-25T02:51:28;99797.84;;;8.36;88.56
74895;BME280;63447;49.446;8.666;2023-04-25T02:53:53;99795.72;;;8.41;88.48
74895;BME280;63447;49.446;8.666;2023-04-25T02:56:19;99796.84;;;8.40;86.53
74895;BME280;63447;49.446;8.666;2023-04-25T02:58:46;99802.69;;;8.39;87.98
74895;BME280;63447;49.446;8.666;2023-04-25T03:01:12;99789.00;;;8.22;88.34
74895;BME280;63447;49.446;8.666;2023-04-25T03:03:37;99795.81;;;8.15;88.31
74895;BME280;63447;49.446;8.666;2023-04-25T03:06:05;99798.53;;;8.24;89.66
74895;BME280;63447;49.446;8.666;2023-04-25T03:08:30;99798.97;;;8.35;89.43
74895;BME280;63447;49.446;8.666;2023-04-25T03:10:58;99789.09;;;8.42;89.22
74895;BME280;63447;49.446;8.666;2023-04-25T03:13:25;99753.72;;;8.32;88.00
74895;BME280;63447;49.446;8.666;2023-04-25T03:15:52;99790.56;;;8.40;86.34
74895;BME280;63447;49.446;8.666;2023-04-25T03:18:20;99784.69;;;8.50;87.58
74895;BME280;63447;49.446;8.666;2023-04-25T03:20:45;99789.31;;;8.58;87.56
74895;BME280;63447;49.446;8.666;2023-04-25T03:23:11;99787.47;;;8.41;85.61
74895;BME280;63447;49.446;8.666;2023-04-25T03:25:37;99787.81;;;8.40;86.84
74895;BME280;63447;49.446;8.666;2023-04-25T03:28:02;99789.97;;;8.26;85.55
74895;BME280;63447;49.446;8.666;2023-04-25T03:30:27;99789.16;;;8.25;88.57
74895;BME280;63447;49.446;8.666;2023-04-25T03:32:53;99789.59;;;8.36;88.32
74895;BME280;63447;49.446;8.666;2023-04-25T03:35:18;99792.47;;;8.48;87.84
74895;BME280;63447;49.446;8.666;2023-04-25T03:37:46;99779.41;;;8.36;85.63
74895;BME280;63447;49.446;8.666;2023-04-25T03:40:14;99778.47;;;8.32;85.91
74895;BME280;63447;49.446;8.666;2023-04-25T03:42:39;99787.09;;;8.52;86.93
74895;BME280;63447;49.446;8.666;2023-04-25T03:45:05;99790.13;;;8.59;86.39
74895;BME280;63447;49.446;8.666;2023-04-25T03:47:33;99785.75;;;8.58;86.35
74895;BME280;63447;49.446;8.666;2023-04-25T03:49:58;99791.06;;;8.63;86.53
74895;BME280;63447;49.446;8.666;2023-04-25T03:52:28;99793.00;;;8.62;84.71
74895;BME280;63447;49.446;8.666;2023-04-25T03:54:53;99792.81;;;8.67;86.41
74895;BME280;63447;49.446;8.666;2023-04-25T03:57:18;99784.75;;;8.62;85.74
74895;BME280;63447;49.446;8.666;2023-04-25T03:59:46;99799.75;;;8.73;86.98
74895;BME280;63447;49.446;8.666;2023-04-25T04:02:11;99780.72;;;8.60;84.37
74895;BME280;63447;49.446;8.666;2023-04-25T04:04:39;99722.69;;;7.94;85.36
74895;BME280;63447;49.446;8.666;2023-04-25T04:07:04;99768.41;;;8.36;87.46
74895;BME280;63447;49.446;8.666;2023-04-25T04:09:30;99794.59;;;8.42;86.20
74895;BME280;63447;49.446;8.666;2023-04-25T04:11:57;99807.50;;;8.50;87.73
74895;BME280;63447;49.446;8.666;2023-04-25T04:14:25;99796.34;;;8.47;86.92
74895;BME280;63447;49.446;8.666;2023-04-25T04:16:51;99802.41;;;8.61;87.43
74895;BME280;63447;49.446;8.666;2023-04-25T04:19:19;99800.25;;;8.67;87.06
74895;BME280;63447;49.446;8.666;2023-04-25T04:21:45;99766.91;;;8.47;86.53
74895;BME280;63447;49.446;8.666;2023-04-25T04:24:10;99794.09;;;8.70;87.30
74895;BME280;63447;49.446;8.666;2023-04-25T04:26:36;99802.88;;;8.84;87.03
74895;BME280;63447;49.446;8.666;2023-04-25T04:29:02;99782.28;;;8.69;86.27
74895;BME280;63447;49.446;8.666;2023-04-25T04:31:28;99781.63;;;8.72;86.10
74895;BME280;63447;49.446;8.666;2023-04-25T04:33:57;99769.66;;;8.47;84.29
74895;BME280;63447;49.446;8.666;2023-04-25T04:36:25;99807.38;;;8.68;84.89
74895;BME280;63447;49.446;8.666;2023-04-25T04:38:54;99809.97;;;8.64;84.09
74895;BME280;63447;49.446;8.666;2023-04-25T04:41:21;99811.56;;;8.74;84.59
74895;BME280;63447;49.446;8.666;2023-04-25T04:43:47;99807.66;;;8.75;84.16
74895;BME280;63447;49.446;8.666;2023-04-25T04:46:12;99711.63;;;8.11;84.78
74895;BME280;63447;49.446;8.666;2023-04-25T04:48:38;99802.69;;;8.68;84.46
74895;BME280;63447;49.446;8.666;2023-04-25T04:51:05;99814.59;;;8.81;85.35
74895;BME280;63447;49.446;8.666;2023-04-25T04:53:33;99822.38;;;8.79;85.08
74895;BME280;63447;49.446;8.666;2023-04-25T04:56:01;99805.28;;;8.65;84.61
74895;BME280;63447;49.446;8.666;2023-04-25T04:58:26;99830.81;;;8.74;85.21
74895;BME280;63447;49.446;8.666;2023-04-25T05:00:54;99828.97;;;8.57;85.05
74895;BME280;63447;49.446;8.666;2023-04-25T05:03:20;99828.97;;;8.57;85.23
74895;BME280;63447;49.446;8.666;2023-04-25T05:05:45;99810.28;;;8.42;86.70
74895;BME280;63447;49.446;8.666;2023-04-25T05:08:11;99842.00;;;8.69;86.44
74895;BME280;63447;49.446;8.666;2023-04-25T05:10:36;99847.78;;;8.76;86.11
74895;BME280;63447;49.446;8.666;2023-04-25T05:13:01;99851.59;;;8.83;85.29
74895;BME280;63447;49.446;8.666;2023-04-25T05:15:27;99821.78;;;8.65;84.83
74895;BME280;63447;49.446;8.666;2023-04-25T05:17:53;99837.91;;;8.75;84.61
74895;BME280;63447;49.446;8.666;2023-04-25T05:20:20;99848.19;;;8.87;84.79
74895;BME280;63447;49.446;8.666;2023-04-25T05:22:46;99850.75;;;8.92;85.25
74895;BME280;63447;49.446;8.666;2023-04-25T05:25:11;99849.59;;;8.93;84.57
74895;BME280;63447;49.446;8.666;2023-04-25T05:27:36;99827.56;;;8.72;85.10
74895;BME280;63447;49.446;8.666;2023-04-25T05:30:02;99835.25;;;8.58;84.85
74895;BME280;63447;49.446;8.666;2023-04-25T05:32:30;99843.09;;;8.76;86.41
74895;BME280;63447;49.446;8.666;2023-04-25T05:34:55;99843.78;;;8.94;85.52
74895;BME280;63447;49.446;8.666;2023-04-25T05:37:23;99847.09;;;9.08;86.05
74895;BME280;63447;49.446;8.666;2023-04-25T05:39:48;99833.38;;;9.21;85.99
74895;BME280;63447;49.446;8.666;2023-04-25T05:42:13;99850.66;;;9.30;83.24
74895;BME280;63447;49.446;8.666;2023-04-25T05:44:39;99833.84;;;9.23;82.99
74895;BME280;63447;49.446;8.666;2023-04-25T05:47:07;99848.28;;;9.40;83.76
74895;BME280;63447;49.446;8.666;2023-04-25T05:49:33;99810.50;;;9.29;84.07
74895;BME280;63447;49.446;8.666;2023-04-25T05:52:01;99838.69;;;9.46;83.60
74895;BME280;63447;49.446;8.666;2023-04-25T05:54:28;99844.31;;;9.50;83.13
74895;BME280;63447;49.446;8.666;2023-04-25T05:56:56;99822.13;;;9.34;82.17
74895;BME280;63447;49.446;8.666;2023-04-25T05:59:23;99841.22;;;9.51;83.70
74895;BME280;63447;49.446;8.666;2023-04-25T06:01:49;99831.09;;;9.43;83.90
74895;BME280;63447;49.446;8.666;2023-04-25T06:04:17;99850.56;;;9.59;83.72
74895;BME280;63447;49.446;8.666;2023-04-25T06:06:42;99859.97;;;9.58;83.71
74895;BME280;63447;49.446;8.666;2023-04-25T06:09:07;99838.53;;;9.43;83.90
74895;BME280;63447;49.446;8.666;2023-04-25T06:11:33;99856.59;;;9.52;83.57
74895;BME280;63447;49.446;8.666;2023-04-25T06:14:00;99858.56;;;9.52;84.27
74895;BME280;63447;49.446;8.666;2023-04-25T06:16:26;99860.63;;;9.55;83.81
74895;BME280;63447;49.446;8.666;2023-04-25T06:18:54;99858.41;;;9.48;83.37
74895;BME280;63447;49.446;8.666;2023-04-25T06:21:19;99863.13;;;9.48;84.20
74895;BME280;63447;49.446;8.666;2023-04-25T06:23:45;99858.75;;;9.47;84.40
74895;BME280;63447;49.446;8.666;2023-04-25T06:26:10;99861.97;;;9.49;84.46
74895;BME280;63447;49.446;8.666;2023-04-25T06:28:35;99851.03;;;9.40;84.03
74895;BME280;63447;49.446;8.666;2023-04-25T06:31:03;99868.78;;;9.51;84.41
74895;BME280;63447;49.446;8.666;2023-04-25T06:33:28;99868.56;;;9.57;85.12
74895;BME280;63447;49.446;8.666;2023-04-25T06:35:54;99820.69;;;9.28;85.15
74895;BME280;63447;49.446;8.666;2023-04-25T06:38:19;99876.41;;;9.67;85.88
74895;BME280;63447;49.446;8.666;2023-04-25T06:40:45;99848.38;;;9.65;84.45
74895;BME280;63447;49.446;8.666;2023-04-25T06:43:10;99870.69;;;9.72;84.78
74895;BME280;63447;49.446;8.666;2023-04-25T06:45:35;99869.59;;;9.64;85.84
74895;BME280;63447;49.446;8.666;2023-04-25T06:48:01;99862.41;;;9.72;85.24
74895;BME280;63447;49.446;8.666;2023-04-25T06:50:28;99881.56;;;9.68;84.24
74895;BME280;63447;49.446;8.666;2023-04-25T06:52:54;99852.91;;;9.48;82.65
74895;BME280;63447;49.446;8.666;2023-04-25T06:55:21;99866.50;;;9.53;84.04
74895;BME280;63447;49.446;8.666;2023-04-25T06:57:49;99879.00;;;9.30;83.42
74895;BME280;63447;49.446;8.666;2023-04-25T07:00:15;99870.63;;;8.97;84.91
74895;BME280;63447;49.446;8.666;2023-04-25T07:02:43;99892.03;;;8.92;84.31
74895;BME280;63447;49.446;8.666;2023-04-25T07:05:11;99877.53;;;8.82;84.02
74895;BME280;63447;49.446;8.666;2023-04-25T07:07:40;99887.78;;;8.65;83.26
74895;BME280;63447;49.446;8.666;2023-04-25T07:10:05;99869.66;;;8.72;85.33
74895;BME280;63447;49.446;8.666;2023-04-25T07:12:31;99893.25;;;9.03;83.92
74895;BME280;63447;49.446;8.666;2023-04-25T07:14:59;99882.25;;;9.03;84.23
74895;BME280;63447;49.446;8.666;2023-04-25T07:17:24;99888.38;;;9.29;82.33
74895;BME280;63447;49.446;8.666;2023-04-25T07:19:50;99870.25;;;9.07;80.06
74895;BME280;63447;49.446;8.666;2023-04-25T07:22:17;99885.03;;;9.24;80.12
74895;BME280;63447;49.446;8.666;2023-04-25T07:24:43;99878.66;;;9.32;78.61
74895;BME280;63447;49.446;8.666;2023-04-25T07:27:13;99898.72;;;9.32;80.30
74895;BME280;63447;49.446;8.666;2023-04-25T07:29:39;99887.28;;;9.42;81.08
74895;BME280;63447;49.446;8.666;2023-04-25T07:32:07;99890.47;;;9.53;78.52
74895;BME280;63447;49.446;8.666;2023-04-25T07:34:32;99881.66;;;9.60;78.23
74895;BME280;63447;49.446;8.666;2023-04-25T07:37:02;99898.50;;;9.79;79.16
74895;BME280;63447;49.446;8.666;2023-04-25T07:39:27;99897.31;;;10.01;78.65
74895;BME280;63447;49.446;8.666;2023-04-25T07:41:52;99909.97;;;10.14;78.64
74895;BME280;63447;49.446;8.666;2023-04-25T07:44:18;99875.69;;;9.91;75.18
74895;BME280;63447;49.446;8.666;2023-04-25T07:46:45;99909.78;;;10.19;77.24
74895;BME280;63447;49.446;8.666;2023-04-25T07:49:11;99919.94;;;10.27;75.78
74895;BME280;63447;49.446;8.666;2023-04-25T07:51:38;99920.81;;;10.19;76.30
74895;BME280;63447;49.446;8.666;2023-04-25T07:54:04;99930.22;;;9.85;78.99
74895;BME280;63447;49.446;8.666;2023-04-25T07:56:30;99930.16;;;9.73;78.41
74895;BME280;63447;49.446;8.666;2023-04-25T07:58:55;99923.31;;;9.58;74.90
74895;BME280;63447;49.446;8.666;2023-04-25T08:01:21;99923.84;;;9.72;75.88
74895;BME280;63447;49.446;8.666;2023-04-25T08:03:47;99937.06;;;9.79;77.38
74895;BME280;63447;49.446;8.666;2023-04-25T08:06:12;99908.38;;;9.80;76.48
74895;BME280;63447;49.446;8.666;2023-04-25T08:08:40;99933.69;;;9.94;75.79
74895;BME280;63447;49.446;8.666;2023-04-25T08:11:07;99933.78;;;9.85;76.99
74895;BME280;63447;49.446;8.666;2023-04-25T08:13:35;99951.28;;;10.02;75.08
74895;BME280;63447;49.446;8.666;2023-04-25T08:16:00;99927.03;;;9.95;73.02
74895;BME280;63447;49.446;8.666;2023-04-25T08:18:26;99938.19;;;9.99;74.42
74895;BME280;63447;49.446;8.666;2023-04-25T08:20:53;99938.91;;;9.54;74.17
74895;BME280;63447;49.446;8.666;2023-04-25T08:23:19;99975.16;;;9.98;77.82
74895;BME280;63447;49.446;8.666;2023-04-25T08:25:44;99963.03;;;10.32;74.14
74895;BME280;63447;49.446;8.666;2023-04-25T08:28:09;99966.06;;;10.39;74.11
74895;BME280;63447;49.446;8.666;2023-04-25T08:30:37;99955.59;;;9.91;73.54
74895;BME280;63447;49.446;8.666;2023-04-25T08:33:05;99967.75;;;10.10;74.59
74895;BME280;63447;49.446;8.666;2023-04-25T08:35:33;99982.81;;;10.34;73.80
74895;BME280;63447;49.446;8.666;2023-04-25T08:37:59;99959.56;;;10.23;71.63
74895;BME280;63447;49.446;8.666;2023-04-25T08:40:27;99993.63;;;10.39;68.80
74895;BME280;63447;49.446;8.666;2023-04-25T08:42:57;99995.13;;;10.48;69.12
74895;BME280;63447;49.446;8.666;2023-04-25T08:45:27;99986.16;;;10.39;69.42
74895;BME280;63447;49.446;8.666;2023-04-25T08:47:54;99984.91;;;10.49;68.55
74895;BME280;63447;49.446;8.666;2023-04-25T08:50:19;99983.91;;;10.66;67.49
74895;BME280;63447;49.446;8.666;2023-04-25T08:52:48;100012.03;;;11.04;66.52
74895;BME280;63447;49.446;8.666;2023-04-25T08:55:16;100012.63;;;11.10;65.57
74895;BME280;63447;49.446;8.666;2023-04-25T08:57:44;100012.16;;;11.20;65.19
74895;BME280;63447;49.446;8.666;2023-04-25T09:00:11;100008.69;;;11.23;65.06
74895;BME280;63447;49.446;8.666;2023-04-25T09:02:39;100016.41;;;10.48;64.48
74895;BME280;63447;49.446;8.666;2023-04-25T09:05:05;100017.78;;;11.23;65.81
74895;BME280;63447;49.446;8.666;2023-04-25T09:07:32;100018.72;;;11.40;64.70
74895;BME280;63447;49.446;8.666;2023-04-25T09:09:57;100021.47;;;11.76;63.87
74895;BME280;63447;49.446;8.666;2023-04-25T09:12:25;100008.19;;;11.94;63.42
74895;BME280;63447;49.446;8.666;2023-04-25T09:15:06;100032.56;;;12.16;64.79
74895;BME280;63447;49.446;8.666;2023-04-25T09:17:32;100031.66;;;12.40;63.16
74895;BME280;63447;49.446;8.666;2023-04-25T09:20:07;100039.97;;;12.56;57.99
74895;BME280;63447;49.446;8.666;2023-04-25T09:22:36;100010.25;;;12.25;59.02
74895;BME280;63447;49.446;8.666;2023-04-25T09:25:12;100044.88;;;12.47;58.66
74895;BME280;63447;49.446;8.666;2023-04-25T09:27:54;100015.78;;;12.53;57.81
74895;BME280;63447;49.446;8.666;2023-04-25T09:30:31;100053.69;;;12.80;58.67
74895;BME280;63447;49.446;8.666;2023-04-25T09:32:59;100042.38;;;12.85;58.07
74895;BME280;63447;49.446;8.666;2023-04-25T09:35:38;100045.91;;;13.30;56.42
74895;BME280;63447;49.446;8.666;2023-04-25T09:38:12;100060.28;;;12.76;56.77
74895;BME280;63447;49.446;8.666;2023-04-25T09:40:44;100048.72;;;12.86;55.05
74895;BME280;63447;49.446;8.666;2023-04-25T09:43:20;100064.66;;;12.77;55.94
74895;BME280;63447;49.446;8.666;2023-04-25T09:45:49;100069.25;;;12.85;55.50
74895;BME280;63447;49.446;8.666;2023-04-25T09:48:21;100064.06;;;12.83;54.92
74895;BME280;63447;49.446;8.666;2023-04-25T09:51:12;100075.00;;;13.08;54.59
74895;BME280;63447;49.446;8.666;2023-04-25T09:53:43;100070.56;;;13.66;53.26
74895;BME280;63447;49.446;8.666;2023-04-25T09:56:10;100076.66;;;14.26;53.13
74895;BME280;63447;49.446;8.666;2023-04-25T09:58:38;100082.09;;;14.57;52.52
74895;BME280;63447;49.446;8.666;2023-04-25T10:01:10;100043.84;;;14.32;47.59
74895;BME280;63447;49.446;8.666;2023-04-25T10:03:37;100089.84;;;14.48;50.01
74895;BME280;63447;49.446;8.666;2023-04-25T10:06:07;100088.22;;;13.77;49.12
74895;BME280;63447;49.446;8.666;2023-04-25T10:08:36;100097.69;;;12.98;52.11
74895;BME280;63447;49.446;8.666;2023-04-25T10:11:03;100093.78;;;13.14;52.27
74895;BME280;63447;49.446;8.666;2023-04-25T10:13:30;100094.88;;;13.57;52.45
74895;BME280;63447;49.446;8.666;2023-04-25T10:16:01;100096.84;;;13.56;50.98
74895;BME280;63447;49.446;8.666;2023-04-25T10:18:27;100070.09;;;12.73;51.54
74895;BME280;63447;49.446;8.666;2023-04-25T10:20:54;100096.53;;;13.77;51.78
74895;BME280;63447;49.446;8.666;2023-04-25T10:23:20;100084.91;;;14.22;51.72
74895;BME280;63447;49.446;8.666;2023-04-25T10:25:50;100105.59;;;15.02;51.34
74895;BME280;63447;49.446;8.666;2023-04-25T10:28:16;100097.78;;;15.53;49.04
74895;BME280;63447;49.446;8.666;2023-04-25T10:31:01;100103.63;;;15.03;48.76
74895;BME280;63447;49.446;8.666;2023-04-25T10:36:12;100089.97;;;14.94;47.39
74895;BME280;63447;49.446;8.666;2023-04-25T10:38:37;100086.38;;;14.93;48.50
74895;BME280;63447;49.446;8.666;2023-04-25T10:41:07;100102.16;;;15.32;47.56
74895;BME280;63447;49.446;8.666;2023-04-25T10:48:52;100100.75;;;16.17;44.86
74895;BME280;63447;49.446;8.666;2023-04-25T10:51:25;100081.63;;;15.40;48.05
74895;BME280;63447;49.446;8.666;2023-04-25T10:56:21;100106.78;;;14.63;48.09
74895;BME280;63447;49.446;8.666;2023-04-25T10:58:49;100111.97;;;13.75;51.56
74895;BME280;63447;49.446;8.666;2023-04-25T11:01:21;100094.53;;;13.74;51.67
74895;BME280;63447;49.446;8.666;2023-04-25T11:03:59;100117.78;;;13.70;52.53
74895;BME280;63447;49.446;8.666;2023-04-25T11:06:46;100112.19;;;13.85;53.02
74895;BME280;63447;49.446;8.666;2023-04-25T11:09:15;100109.19;;;14.10;53.22
74895;BME280;63447;49.446;8.666;2023-04-25T11:11:41;100115.88;;;13.89;53.07
74895;BME280;63447;49.446;8.666;2023-04-25T11:14:06;100115.47;;;14.07;51.65
74895;BME280;63447;49.446;8.666;2023-04-25T11:16:32;100075.69;;;13.83;50.66
74895;BME280;63447;49.446;8.666;2023-04-25T11:18:58;100108.28;;;13.71;51.21
74895;BME280;63447;49.446;8.666;2023-04-25T11:21:25;100120.38;;;13.63;51.39
74895;BME280;63447;49.446;8.666;2023-04-25T11:23:53;100118.03;;;13.65;50.58
74895;BME280;63447;49.446;8.666;2023-04-25T11:26:19;100119.84;;;13.41;51.50
74895;BME280;63447;49.446;8.666;2023-04-25T11:28:45;100109.94;;;13.12;49.70
74895;BME280;63447;49.446;8.666;2023-04-25T11:31:12;100095.53;;;12.91;51.33
74895;BME280;63447;49.446;8.666;2023-04-25T11:33:41;100128.97;;;12.98;53.36
74895;BME280;63447;49.446;8.666;2023-04-25T11:36:07;100132.47;;;12.83;52.98
74895;BME280;63447;49.446;8.666;2023-04-25T11:38:35;100128.06;;;12.66;53.99
74895;BME280;63447;49.446;8.666;2023-04-25T11:41:00;100133.94;;;12.65;54.05
74895;BME280;63447;49.446;8.666;2023-04-25T11:43:26;100140.66;;;12.51;53.56
74895;BME280;63447;49.446;8.666;2023-04-25T11:45:53;100147.94;;;12.84;53.86
74895;BME280;63447;49.446;8.666;2023-04-25T11:48:19;100136.81;;;12.96;53.03
74895;BME280;63447;49.446;8.666;2023-04-25T11:50:45;100154.38;;;12.88;51.93
74895;BME280;63447;49.446;8.666;2023-04-25T11:53:10;100146.56;;;13.06;52.70
74895;BME280;63447;49.446;8.666;2023-04-25T11:55:36;100129.34;;;13.12;51.56
74895;BME280;63447;49.446;8.666;2023-04-25T11:58:04;100149.84;;;13.23;50.94
74895;BME280;63447;49.446;8.666;2023-04-25T12:00:30;100153.69;;;13.19;52.34
74895;BME280;63447;49.446;8.666;2023-04-25T12:02:56;100137.09;;;12.79;52.22
74895;BME280;63447;49.446;8.666;2023-04-25T12:05:27;100151.41;;;13.09;51.72
74895;BME280;63447;49.446;8.666;2023-04-25T12:07:54;100149.50;;;13.41;49.28
74895;BME280;63447;49.446;8.666;2023-04-25T12:10:22;100158.63;;;13.57;50.73
74895;BME280;63447;49.446;8.666;2023-04-25T12:12:53;100154.06;;;14.31;51.14
74895;BME280;63447;49.446;8.666;2023-04-25T12:15:28;100147.34;;;14.86;48.32
74895;BME280;63447;49.446;8.666;2023-04-25T12:17:56;100146.31;;;14.94;46.45
74895;BME280;63447;49.446;8.666;2023-04-25T12:20:24;100154.06;;;14.47;47.13
74895;BME280;63447;49.446;8.666;2023-04-25T12:22:52;100147.94;;;14.06;47.19
74895;BME280;63447;49.446;8.666;2023-04-25T12:25:40;100157.88;;;14.23;49.75
74895;BME280;63447;49.446;8.666;2023-04-25T12:28:24;100152.00;;;13.77;51.18
74895;BME280;63447;49.446;8.666;2023-04-25T12:31:06;100152.56;;;13.67;50.68
74895;BME280;63447;49.446;8.666;2023-04-25T12:33:36;100158.38;;;13.46;49.68
74895;BME280;63447;49.446;8.666;2023-04-25T12:36:03;100179.34;;;13.04;52.48
74895;BME280;63447;49.446;8.666;2023-04-25T12:38:36;100162.56;;;12.56;53.18
74895;BME280;63447;49.446;8.666;2023-04-25T12:41:04;100180.09;;;12.48;53.67
74895;BME280;63447;49.446;8.666;2023-04-25T12:43:32;100158.47;;;12.38;53.17
74895;BME280;63447;49.446;8.666;2023-04-25T12:45:58;100175.69;;;12.19;53.40
74895;BME280;63447;49.446;8.666;2023-04-25T12:48:25;100177.53;;;12.68;53.37
74895;BME280;63447;49.446;8.666;2023-04-25T12:50:51;100173.75;;;13.59;53.27
74895;BME280;63447;49.446;8.666;2023-04-25T12:53:24;100165.25;;;14.00;52.50
74895;BME280;63447;49.446;8.666;2023-04-25T12:55:50;100158.06;;;14.14;50.68
74895;BME280;63447;49.446;8.666;2023-04-25T12:58:17;100184.25;;;14.68;50.09
74895;BME280;63447;49.446;8.666;2023-04-25T13:00:45;100172.16;;;14.76;48.75
74895;BME280;63447;49.446;8.666;2023-04-25T13:03:11;100181.72;;;14.98;47.67
74895;BME280;63447;49.446;8.666;2023-04-25T13:05:42;100182.38;;;14.72;47.55
74895;BME280;63447;49.446;8.666;2023-04-25T13:08:07;100186.91;;;14.80;46.84
74895;BME280;63447;49.446;8.666;2023-04-25T13:10:33;100190.81;;;14.59;46.87
74895;BME280;63447;49.446;8.666;2023-04-25T13:13:03;100188.72;;;14.53;46.50
74895;BME280;63447;49.446;8.666;2023-04-25T13:15:30;100187.59;;;14.57;47.52